Buckden, United Kingdom
Current Conditions -  °F | °C
As of 4:20 PM on Sunday 23 Nov 2014 (Local Time) from EGSC Reporting Station
Rain Showers Rain Showers  
Wind Chill:   Ceiling: Unl
Heat Index:   Visibility: 4mi
Dew Point:   Wind: 3mph
Humidity: 93%   Direction: NA
Pressure: 30.03"   Gusts: NA
Location:  52.29°N, 0.25°W
Report Text: EGSC 231620Z VRB03KT 7000 SHRA FEW012 SCT020 07/06 Q1017
Loading
Personal Weather Stations






























Interactive Weather Map New forecast layout! Learn more

10-Day Weather Forecast

Advertisements
Track Severe Weather on mobile